sensor_id;sensor_type;location;lat;lon;timestamp;pressure;altitude;pressure_sealevel;temperature;humidity
60479;BME280;46321;48.398;11.754;2023-04-03T00:01:00;97160.00;;;2.73;67.77
60479;BME280;46321;48.398;11.754;2023-04-03T00:03:26;97165.41;;;2.83;67.73
60479;BME280;46321;48.398;11.754;2023-04-03T00:05:51;97164.28;;;2.74;68.12
60479;BME280;46321;48.398;11.754;2023-04-03T00:08:16;97167.84;;;2.73;68.43
60479;BME280;46321;48.398;11.754;2023-04-03T00:10:42;97174.09;;;2.83;68.06
60479;BME280;46321;48.398;11.754;2023-04-03T00:13:08;97173.75;;;2.88;67.50
60479;BME280;46321;48.398;11.754;2023-04-03T00:15:35;97168.25;;;2.80;68.05
60479;BME280;46321;48.398;11.754;2023-04-03T00:18:02;97165.31;;;2.84;68.05
60479;BME280;46321;48.398;11.754;2023-04-03T00:20:27;97165.19;;;2.86;67.91
60479;BME280;46321;48.398;11.754;2023-04-03T00:22:53;97176.16;;;2.91;67.87
60479;BME280;46321;48.398;11.754;2023-04-03T00:25:18;97164.53;;;2.95;67.79
60479;BME280;46321;48.398;11.754;2023-04-03T00:27:44;97175.50;;;3.01;67.39
60479;BME280;46321;48.398;11.754;2023-04-03T00:30:11;97176.06;;;2.93;67.58
60479;BME280;46321;48.398;11.754;2023-04-03T00:32:37;97165.53;;;2.81;67.50
60479;BME280;46321;48.398;11.754;2023-04-03T00:35:03;97167.81;;;2.86;67.92
60479;BME280;46321;48.398;11.754;2023-04-03T00:37:28;97177.94;;;2.91;67.38
60479;BME280;46321;48.398;11.754;2023-04-03T00:39:54;97173.31;;;2.94;67.31
60479;BME280;46321;48.398;11.754;2023-04-03T00:42:20;97173.53;;;2.91;67.10
60479;BME280;46321;48.398;11.754;2023-04-03T00:47:13;97177.81;;;2.92;67.51
60479;BME280;46321;48.398;11.754;2023-04-03T00:49:41;97173.44;;;2.93;67.25
60479;BME280;46321;48.398;11.754;2023-04-03T00:52:11;97178.75;;;2.91;66.85
60479;BME280;46321;48.398;11.754;2023-04-03T00:54:40;97168.09;;;2.94;66.71
60479;BME280;46321;48.398;11.754;2023-04-03T00:57:07;97161.41;;;2.90;66.51
60479;BME280;46321;48.398;11.754;2023-04-03T00:59:35;97163.97;;;2.79;66.75
60479;BME280;46321;48.398;11.754;2023-04-03T01:02:03;97161.13;;;2.82;66.74
60479;BME280;46321;48.398;11.754;2023-04-03T01:07:01;97160.81;;;2.86;66.92
60479;BME280;46321;48.398;11.754;2023-04-03T01:09:28;97156.50;;;2.85;66.83
60479;BME280;46321;48.398;11.754;2023-04-03T01:11:54;97156.75;;;2.69;67.46
60479;BME280;46321;48.398;11.754;2023-04-03T01:14:20;97162.31;;;2.78;67.06
60479;BME280;46321;48.398;11.754;2023-04-03T01:16:54;97170.75;;;2.81;67.18
60479;BME280;46321;48.398;11.754;2023-04-03T01:19:22;97168.97;;;2.82;67.07
60479;BME280;46321;48.398;11.754;2023-04-03T01:22:02;97164.41;;;2.72;67.19
60479;BME280;46321;48.398;11.754;2023-04-03T01:24:36;97168.38;;;2.65;67.64
60479;BME280;46321;48.398;11.754;2023-04-03T01:27:05;97169.75;;;2.71;67.20
60479;BME280;46321;48.398;11.754;2023-04-03T01:29:30;97172.97;;;2.74;67.12
60479;BME280;46321;48.398;11.754;2023-04-03T01:31:58;97168.47;;;2.77;67.38
60479;BME280;46321;48.398;11.754;2023-04-03T01:34:24;97166.13;;;2.85;67.94
60479;BME280;46321;48.398;11.754;2023-04-03T01:36:50;97162.19;;;2.79;67.54
60479;BME280;46321;48.398;11.754;2023-04-03T01:39:16;97167.19;;;2.82;67.52
60479;BME280;46321;48.398;11.754;2023-04-03T01:41:41;97174.66;;;2.62;68.19
60479;BME280;46321;48.398;11.754;2023-04-03T01:44:06;97181.75;;;2.73;68.18
60479;BME280;46321;48.398;11.754;2023-04-03T01:46:32;97169.38;;;2.75;68.05
60479;BME280;46321;48.398;11.754;2023-04-03T01:48:57;97178.47;;;2.83;67.92
60479;BME280;46321;48.398;11.754;2023-04-03T01:51:23;97173.50;;;2.80;67.76
60479;BME280;46321;48.398;11.754;2023-04-03T01:53:48;97176.91;;;2.80;68.33
60479;BME280;46321;48.398;11.754;2023-04-03T01:56:13;97177.78;;;2.68;68.37
60479;BME280;46321;48.398;11.754;2023-04-03T01:58:38;97182.06;;;2.82;68.04
60479;BME280;46321;48.398;11.754;2023-04-03T02:01:04;97178.28;;;2.86;67.99
60479;BME280;46321;48.398;11.754;2023-04-03T02:03:30;97180.03;;;2.85;68.21
60479;BME280;46321;48.398;11.754;2023-04-03T02:05:56;97180.25;;;2.82;68.46
60479;BME280;46321;48.398;11.754;2023-04-03T02:08:21;97182.13;;;2.80;68.08
60479;BME280;46321;48.398;11.754;2023-04-03T02:10:47;97177.75;;;2.81;68.32
60479;BME280;46321;48.398;11.754;2023-04-03T02:13:13;97174.63;;;2.75;68.48
60479;BME280;46321;48.398;11.754;2023-04-03T02:15:39;97170.78;;;2.68;67.98
60479;BME280;46321;48.398;11.754;2023-04-03T02:18:04;97166.50;;;2.67;68.42
60479;BME280;46321;48.398;11.754;2023-04-03T02:20:30;97171.63;;;2.69;68.79
60479;BME280;46321;48.398;11.754;2023-04-03T02:22:55;97171.28;;;2.73;69.30
60479;BME280;46321;48.398;11.754;2023-04-03T02:25:20;97171.72;;;2.67;69.05
60479;BME280;46321;48.398;11.754;2023-04-03T02:27:46;97182.69;;;2.72;69.00
60479;BME280;46321;48.398;11.754;2023-04-03T02:30:11;97161.66;;;2.74;68.76
60479;BME280;46321;48.398;11.754;2023-04-03T02:32:37;97157.06;;;2.78;68.68
60479;BME280;46321;48.398;11.754;2023-04-03T02:35:03;97169.06;;;2.80;68.76
60479;BME280;46321;48.398;11.754;2023-04-03T02:37:28;97160.41;;;2.80;68.66
60479;BME280;46321;48.398;11.754;2023-04-03T02:39:53;97170.31;;;2.88;68.80
60479;BME280;46321;48.398;11.754;2023-04-03T02:42:19;97164.06;;;2.77;68.38
60479;BME280;46321;48.398;11.754;2023-04-03T02:44:44;97158.66;;;2.67;68.64
60479;BME280;46321;48.398;11.754;2023-04-03T02:47:09;97163.34;;;2.75;68.61
60479;BME280;46321;48.398;11.754;2023-04-03T02:49:35;97166.41;;;2.69;68.96
60479;BME280;46321;48.398;11.754;2023-04-03T02:52:00;97168.78;;;2.72;68.67
60479;BME280;46321;48.398;11.754;2023-04-03T02:54:25;97170.47;;;2.73;68.65
60479;BME280;46321;48.398;11.754;2023-04-03T02:56:54;97162.00;;;2.69;68.69
60479;BME280;46321;48.398;11.754;2023-04-03T02:59:20;97174.34;;;2.67;68.99
60479;BME280;46321;48.398;11.754;2023-04-03T03:01:45;97173.00;;;2.61;69.37
60479;BME280;46321;48.398;11.754;2023-04-03T03:04:10;97167.94;;;2.71;69.13
60479;BME280;46321;48.398;11.754;2023-04-03T03:06:36;97174.84;;;2.72;68.41
60479;BME280;46321;48.398;11.754;2023-04-03T03:09:01;97172.88;;;2.63;69.18
60479;BME280;46321;48.398;11.754;2023-04-03T03:11:26;97173.84;;;2.62;69.09
60479;BME280;46321;48.398;11.754;2023-04-03T03:13:52;97174.13;;;2.70;69.07
60479;BME280;46321;48.398;11.754;2023-04-03T03:16:17;97172.38;;;2.71;69.08
60479;BME280;46321;48.398;11.754;2023-04-03T03:18:42;97172.25;;;2.72;68.88
60479;BME280;46321;48.398;11.754;2023-04-03T03:21:09;97172.88;;;2.63;69.40
60479;BME280;46321;48.398;11.754;2023-04-03T03:23:35;97169.94;;;2.68;69.01
60479;BME280;46321;48.398;11.754;2023-04-03T03:26:03;97160.81;;;2.73;68.78
60479;BME280;46321;48.398;11.754;2023-04-03T03:28:30;97163.38;;;2.62;68.96
60479;BME280;46321;48.398;11.754;2023-04-03T03:30:56;97168.38;;;2.65;68.95
60479;BME280;46321;48.398;11.754;2023-04-03T03:33:22;97166.72;;;2.64;69.07
60479;BME280;46321;48.398;11.754;2023-04-03T03:35:47;97165.78;;;2.65;68.96
60479;BME280;46321;48.398;11.754;2023-04-03T03:38:12;97164.31;;;2.61;68.86
60479;BME280;46321;48.398;11.754;2023-04-03T03:40:37;97165.28;;;2.60;68.73
60479;BME280;46321;48.398;11.754;2023-04-03T03:43:03;97169.47;;;2.49;68.99
60479;BME280;46321;48.398;11.754;2023-04-03T03:45:28;97171.91;;;2.39;69.29
60479;BME280;46321;48.398;11.754;2023-04-03T03:47:54;97173.75;;;2.50;68.97
60479;BME280;46321;48.398;11.754;2023-04-03T03:50:20;97168.53;;;2.50;69.29
60479;BME280;46321;48.398;11.754;2023-04-03T03:52:45;97175.09;;;2.56;69.13
60479;BME280;46321;48.398;11.754;2023-04-03T03:55:11;97179.47;;;2.56;69.23
60479;BME280;46321;48.398;11.754;2023-04-03T03:57:36;97177.59;;;2.58;69.28
60479;BME280;46321;48.398;11.754;2023-04-03T04:00:02;97184.50;;;2.59;69.41
60479;BME280;46321;48.398;11.754;2023-04-03T04:02:28;97185.34;;;2.59;68.65
60479;BME280;46321;48.398;11.754;2023-04-03T04:04:53;97184.50;;;2.59;69.59
60479;BME280;46321;48.398;11.754;2023-04-03T04:07:18;97181.69;;;2.62;69.50
60479;BME280;46321;48.398;11.754;2023-04-03T04:09:44;97176.47;;;2.62;69.62
60479;BME280;46321;48.398;11.754;2023-04-03T04:12:09;97171.22;;;2.62;69.37
60479;BME280;46321;48.398;11.754;2023-04-03T04:14:35;97175.50;;;2.63;69.28
60479;BME280;46321;48.398;11.754;2023-04-03T04:17:00;97176.47;;;2.62;69.66
60479;BME280;46321;48.398;11.754;2023-04-03T04:19:36;97181.28;;;2.55;69.72
60479;BME280;46321;48.398;11.754;2023-04-03T04:22:02;97175.09;;;2.56;69.72
60479;BME280;46321;48.398;11.754;2023-04-03T04:24:27;97181.78;;;2.60;69.50
60479;BME280;46321;48.398;11.754;2023-04-03T04:26:52;97172.59;;;2.55;69.65
60479;BME280;46321;48.398;11.754;2023-04-03T04:29:17;97177.09;;;2.53;69.59
60479;BME280;46321;48.398;11.754;2023-04-03T04:31:43;97178.75;;;2.54;69.46
60479;BME280;46321;48.398;11.754;2023-04-03T04:34:08;97181.59;;;2.50;69.16
60479;BME280;46321;48.398;11.754;2023-04-03T04:36:33;97188.88;;;2.58;69.26
60479;BME280;46321;48.398;11.754;2023-04-03T04:38:59;97189.53;;;2.62;69.49
60479;BME280;46321;48.398;11.754;2023-04-03T04:41:25;97180.22;;;2.58;69.42
60479;BME280;46321;48.398;11.754;2023-04-03T04:43:51;97187.13;;;2.59;69.53
60479;BME280;46321;48.398;11.754;2023-04-03T04:46:17;97189.72;;;2.59;69.58
60479;BME280;46321;48.398;11.754;2023-04-03T04:48:43;97193.91;;;2.61;69.56
60479;BME280;46321;48.398;11.754;2023-04-03T04:51:09;97198.09;;;2.64;69.21
60479;BME280;46321;48.398;11.754;2023-04-03T04:53:35;97201.75;;;2.61;69.72
60479;BME280;46321;48.398;11.754;2023-04-03T04:56:00;97200.81;;;2.49;69.48
60479;BME280;46321;48.398;11.754;2023-04-03T04:58:26;97192.88;;;2.51;69.31
60479;BME280;46321;48.398;11.754;2023-04-03T05:01:06;97201.97;;;2.58;69.03
60479;BME280;46321;48.398;11.754;2023-04-03T05:03:32;97206.69;;;2.53;69.71
60479;BME280;46321;48.398;11.754;2023-04-03T05:05:58;97198.53;;;2.45;70.09
60479;BME280;46321;48.398;11.754;2023-04-03T05:08:23;97198.94;;;2.51;70.02
60479;BME280;46321;48.398;11.754;2023-04-03T05:10:49;97203.25;;;2.39;70.03
60479;BME280;46321;48.398;11.754;2023-04-03T05:13:14;97203.44;;;2.49;69.62
60479;BME280;46321;48.398;11.754;2023-04-03T05:15:40;97196.84;;;2.57;69.67
60479;BME280;46321;48.398;11.754;2023-04-03T05:18:05;97203.53;;;2.61;69.59
60479;BME280;46321;48.398;11.754;2023-04-03T05:20:31;97205.22;;;2.62;69.70
60479;BME280;46321;48.398;11.754;2023-04-03T05:22:57;97208.44;;;2.66;69.51
60479;BME280;46321;48.398;11.754;2023-04-03T05:25:23;97209.28;;;2.66;69.41
60479;BME280;46321;48.398;11.754;2023-04-03T05:27:48;97210.84;;;2.56;68.87
60479;BME280;46321;48.398;11.754;2023-04-03T05:30:14;97212.66;;;2.55;69.45
60479;BME280;46321;48.398;11.754;2023-04-03T05:32:39;97209.59;;;2.61;69.24
60479;BME280;46321;48.398;11.754;2023-04-03T05:35:06;97205.22;;;2.62;68.96
60479;BME280;46321;48.398;11.754;2023-04-03T05:37:33;97202.81;;;2.59;69.27
60479;BME280;46321;48.398;11.754;2023-04-03T05:39:58;97211.66;;;2.69;69.51
60479;BME280;46321;48.398;11.754;2023-04-03T05:42:23;97205.38;;;2.72;68.79
60479;BME280;46321;48.398;11.754;2023-04-03T05:44:49;97206.56;;;2.55;69.41
60479;BME280;46321;48.398;11.754;2023-04-03T05:47:15;97205.94;;;2.64;69.06
60479;BME280;46321;48.398;11.754;2023-04-03T05:49:41;97210.00;;;2.68;69.08
60479;BME280;46321;48.398;11.754;2023-04-03T05:52:18;97210.09;;;2.67;68.98
60479;BME280;46321;48.398;11.754;2023-04-03T05:54:45;97212.38;;;2.71;69.10
60479;BME280;46321;48.398;11.754;2023-04-03T05:57:13;97207.00;;;2.61;69.06
60479;BME280;46321;48.398;11.754;2023-04-03T05:59:38;97212.81;;;2.65;68.73
60479;BME280;46321;48.398;11.754;2023-04-03T06:02:03;97220.66;;;2.65;69.07
60479;BME280;46321;48.398;11.754;2023-04-03T06:04:29;97220.22;;;2.71;69.21
60479;BME280;46321;48.398;11.754;2023-04-03T06:06:56;97215.56;;;2.63;69.45
60479;BME280;46321;48.398;11.754;2023-04-03T06:09:25;97221.31;;;2.69;69.45
60479;BME280;46321;48.398;11.754;2023-04-03T06:11:50;97221.19;;;2.70;68.99
60479;BME280;46321;48.398;11.754;2023-04-03T06:14:17;97219.41;;;2.71;68.89
60479;BME280;46321;48.398;11.754;2023-04-03T06:16:42;97220.38;;;2.57;69.63
60479;BME280;46321;48.398;11.754;2023-04-03T06:19:09;97221.28;;;2.82;68.90
60479;BME280;46321;48.398;11.754;2023-04-03T06:21:34;97219.47;;;2.82;68.95
60479;BME280;46321;48.398;11.754;2023-04-03T06:24:01;97229.00;;;2.83;69.29
60479;BME280;46321;48.398;11.754;2023-04-03T06:26:27;97230.06;;;2.81;69.30
60479;BME280;46321;48.398;11.754;2023-04-03T06:28:52;97233.47;;;2.94;69.03
60479;BME280;46321;48.398;11.754;2023-04-03T06:31:18;97233.34;;;3.09;68.75
60479;BME280;46321;48.398;11.754;2023-04-03T06:33:43;97231.25;;;3.01;68.14
60479;BME280;46321;48.398;11.754;2023-04-03T06:36:10;97233.75;;;3.03;68.50
60479;BME280;46321;48.398;11.754;2023-04-03T06:38:35;97233.34;;;3.09;68.69
60479;BME280;46321;48.398;11.754;2023-04-03T06:41:00;97233.34;;;3.09;68.11
60479;BME280;46321;48.398;11.754;2023-04-03T06:43:26;97238.75;;;3.19;68.10
60479;BME280;46321;48.398;11.754;2023-04-03T06:45:51;97244.06;;;2.93;68.76
60479;BME280;46321;48.398;11.754;2023-04-03T06:48:16;97242.72;;;2.74;69.24
60479;BME280;46321;48.398;11.754;2023-04-03T06:50:42;97236.72;;;2.85;68.91
60479;BME280;46321;48.398;11.754;2023-04-03T06:53:08;97239.03;;;2.90;68.92
60479;BME280;46321;48.398;11.754;2023-04-03T06:55:34;97240.41;;;2.95;68.41
60479;BME280;46321;48.398;11.754;2023-04-03T06:57:59;97246.13;;;3.01;68.83
60479;BME280;46321;48.398;11.754;2023-04-03T07:00:25;97229.63;;;2.87;69.13
60479;BME280;46321;48.398;11.754;2023-04-03T07:02:51;97238.81;;;2.93;68.67
60479;BME280;46321;48.398;11.754;2023-04-03T07:05:17;97240.69;;;3.04;68.87
60479;BME280;46321;48.398;11.754;2023-04-03T07:07:42;97248.09;;;3.10;68.50
60479;BME280;46321;48.398;11.754;2023-04-03T07:10:08;97245.91;;;3.04;68.16
60479;BME280;46321;48.398;11.754;2023-04-03T07:12:33;97248.72;;;3.01;68.12
60479;BME280;46321;48.398;11.754;2023-04-03T07:14:59;97256.91;;;2.96;68.72
60479;BME280;46321;48.398;11.754;2023-04-03T07:17:24;97257.63;;;3.11;68.57
60479;BME280;46321;48.398;11.754;2023-04-03T07:19:51;97269.13;;;3.08;68.45
60479;BME280;46321;48.398;11.754;2023-04-03T07:22:16;97271.44;;;3.13;67.88
60479;BME280;46321;48.398;11.754;2023-04-03T07:24:42;97271.91;;;3.18;68.01
60479;BME280;46321;48.398;11.754;2023-04-03T07:27:07;97262.91;;;3.23;67.39
60479;BME280;46321;48.398;11.754;2023-04-03T07:29:33;97275.25;;;3.58;66.64
60479;BME280;46321;48.398;11.754;2023-04-03T07:31:59;97272.56;;;3.71;66.44
60479;BME280;46321;48.398;11.754;2023-04-03T07:34:25;97272.66;;;3.70;66.40
60479;BME280;46321;48.398;11.754;2023-04-03T07:36:51;97272.13;;;3.53;66.27
60479;BME280;46321;48.398;11.754;2023-04-03T07:39:16;97270.41;;;3.65;66.56
60479;BME280;46321;48.398;11.754;2023-04-03T07:41:44;97276.34;;;3.92;65.66
60479;BME280;46321;48.398;11.754;2023-04-03T07:44:11;97276.56;;;3.88;65.75
60479;BME280;46321;48.398;11.754;2023-04-03T07:46:37;97280.47;;;4.19;64.47
60479;BME280;46321;48.398;11.754;2023-04-03T07:49:02;97282.38;;;3.92;64.01
60479;BME280;46321;48.398;11.754;2023-04-03T07:51:27;97287.34;;;4.08;64.12
60479;BME280;46321;48.398;11.754;2023-04-03T07:53:54;97292.09;;;4.03;64.25
60479;BME280;46321;48.398;11.754;2023-04-03T07:56:20;97291.34;;;3.89;64.05
60479;BME280;46321;48.398;11.754;2023-04-03T07:58:45;97296.16;;;4.07;64.25
60479;BME280;46321;48.398;11.754;2023-04-03T08:01:11;97296.47;;;3.91;64.13
60479;BME280;46321;48.398;11.754;2023-04-03T08:03:37;97301.53;;;3.81;64.79
60479;BME280;46321;48.398;11.754;2023-04-03T08:06:05;97284.53;;;3.87;64.49
60479;BME280;46321;48.398;11.754;2023-04-03T08:08:30;97296.41;;;4.16;64.08
60479;BME280;46321;48.398;11.754;2023-04-03T08:10:58;97284.44;;;4.36;64.70
60479;BME280;46321;48.398;11.754;2023-04-03T08:13:23;97272.44;;;4.56;63.65
60479;BME280;46321;48.398;11.754;2023-04-03T08:15:49;97280.88;;;4.60;63.52
60479;BME280;46321;48.398;11.754;2023-04-03T08:18:16;97287.53;;;4.53;64.59
60479;BME280;46321;48.398;11.754;2023-04-03T08:20:42;97290.31;;;4.63;63.56
60479;BME280;46321;48.398;11.754;2023-04-03T08:23:08;97294.25;;;4.68;62.74
60479;BME280;46321;48.398;11.754;2023-04-03T08:25:37;97288.53;;;4.75;62.90
60479;BME280;46321;48.398;11.754;2023-04-03T08:28:03;97297.00;;;4.67;62.30
60479;BME280;46321;48.398;11.754;2023-04-03T08:30:28;97285.78;;;4.76;62.12
60479;BME280;46321;48.398;11.754;2023-04-03T08:32:54;97293.91;;;4.85;62.58
60479;BME280;46321;48.398;11.754;2023-04-03T08:35:19;97288.91;;;4.81;62.69
60479;BME280;46321;48.398;11.754;2023-04-03T08:37:45;97287.22;;;4.92;62.03
60479;BME280;46321;48.398;11.754;2023-04-03T08:40:14;97283.84;;;5.24;61.89
60479;BME280;46321;48.398;11.754;2023-04-03T08:42:56;97291.63;;;5.26;60.85
60479;BME280;46321;48.398;11.754;2023-04-03T08:45:38;97287.44;;;5.23;60.22
60479;BME280;46321;48.398;11.754;2023-04-03T08:48:29;97291.84;;;5.34;60.09
60479;BME280;46321;48.398;11.754;2023-04-03T08:50:59;97294.34;;;5.24;59.49
60479;BME280;46321;48.398;11.754;2023-04-03T08:53:28;97297.25;;;4.98;60.01
60479;BME280;46321;48.398;11.754;2023-04-03T08:55:58;97293.84;;;5.42;59.77
60479;BME280;46321;48.398;11.754;2023-04-03T08:58:51;97295.50;;;5.55;58.02
60479;BME280;46321;48.398;11.754;2023-04-03T09:01:34;97291.75;;;5.69;57.20
60479;BME280;46321;48.398;11.754;2023-04-03T09:04:02;97302.81;;;5.84;56.80
60479;BME280;46321;48.398;11.754;2023-04-03T09:06:31;97303.16;;;5.46;57.08
60479;BME280;46321;48.398;11.754;2023-04-03T09:14:22;97305.38;;;5.51;55.83
60479;BME280;46321;48.398;11.754;2023-04-03T09:16:56;97314.25;;;5.38;55.11
60479;BME280;46321;48.398;11.754;2023-04-03T09:19:49;97304.06;;;5.68;56.27
60479;BME280;46321;48.398;11.754;2023-04-03T09:22:20;97303.34;;;5.99;54.80
60479;BME280;46321;48.398;11.754;2023-04-03T09:24:51;97306.69;;;6.01;53.99
60479;BME280;46321;48.398;11.754;2023-04-03T09:27:18;97307.13;;;6.18;53.09
60479;BME280;46321;48.398;11.754;2023-04-03T09:29:44;97306.53;;;6.03;52.63
60479;BME280;46321;48.398;11.754;2023-04-03T09:32:35;97310.44;;;5.87;52.39
60479;BME280;46321;48.398;11.754;2023-04-03T09:35:17;97312.84;;;5.79;53.65
60479;BME280;46321;48.398;11.754;2023-04-03T09:37:50;97308.91;;;5.84;52.24
60479;BME280;46321;48.398;11.754;2023-04-03T09:42:52;97305.94;;;5.78;51.38
60479;BME280;46321;48.398;11.754;2023-04-03T09:45:33;97300.56;;;5.79;51.13
60479;BME280;46321;48.398;11.754;2023-04-03T09:48:25;97301.03;;;6.06;51.70
60479;BME280;46321;48.398;11.754;2023-04-03T09:55:54;97287.91;;;6.70;49.66
60479;BME280;46321;48.398;11.754;2023-04-03T09:58:28;97295.84;;;7.12;49.09
60479;BME280;46321;48.398;11.754;2023-04-03T10:00:59;97297.38;;;7.14;48.70
60479;BME280;46321;48.398;11.754;2023-04-03T10:03:30;97294.97;;;7.42;48.36
60479;BME280;46321;48.398;11.754;2023-04-03T10:05:57;97290.88;;;7.79;44.61
60479;BME280;46321;48.398;11.754;2023-04-03T10:08:33;97295.72;;;7.94;45.50
60479;BME280;46321;48.398;11.754;2023-04-03T10:13:31;97287.66;;;7.76;45.34
60479;BME280;46321;48.398;11.754;2023-04-03T10:16:04;97292.66;;;7.59;44.34
60479;BME280;46321;48.398;11.754;2023-04-03T10:21:29;97294.75;;;7.24;45.40
60479;BME280;46321;48.398;11.754;2023-04-03T10:24:08;97285.06;;;6.83;44.73
60479;BME280;46321;48.398;11.754;2023-04-03T10:31:57;97290.28;;;7.66;41.68
60479;BME280;46321;48.398;11.754;2023-04-03T10:34:33;97287.38;;;8.19;38.43
60479;BME280;46321;48.398;11.754;2023-04-03T10:39:57;97277.13;;;8.84;36.56
60479;BME280;46321;48.398;11.754;2023-04-03T10:42:43;97278.88;;;9.68;37.42
60479;BME280;46321;48.398;11.754;2023-04-03T10:48:04;97287.16;;;9.08;40.31
60479;BME280;46321;48.398;11.754;2023-04-03T10:56:44;97286.34;;;8.50;42.30
60479;BME280;46321;48.398;11.754;2023-04-03T11:02:27;97284.00;;;10.96;38.63
60479;BME280;46321;48.398;11.754;2023-04-03T11:05:18;97281.06;;;11.42;35.40
60479;BME280;46321;48.398;11.754;2023-04-03T11:07:49;97281.28;;;11.22;36.40
60479;BME280;46321;48.398;11.754;2023-04-03T11:10:40;97275.66;;;10.82;35.75
60479;BME280;46321;48.398;11.754;2023-04-03T11:13:12;97264.56;;;12.07;36.10
60479;BME280;46321;48.398;11.754;2023-04-03T11:15:38;97257.94;;;13.74;33.94
60479;BME280;46321;48.398;11.754;2023-04-03T11:18:06;97261.41;;;15.06;30.56
60479;BME280;46321;48.398;11.754;2023-04-03T11:20:35;97256.94;;;13.99;29.44
60479;BME280;46321;48.398;11.754;2023-04-03T11:23:31;97244.41;;;13.20;30.58
60479;BME280;46321;48.398;11.754;2023-04-03T11:26:07;97247.91;;;12.72;32.09
60479;BME280;46321;48.398;11.754;2023-04-03T11:28:33;97251.34;;;11.30;32.92
60479;BME280;46321;48.398;11.754;2023-04-03T11:31:15;97249.53;;;10.52;33.07
60479;BME280;46321;48.398;11.754;2023-04-03T11:33:55;97247.72;;;9.71;34.29
60479;BME280;46321;48.398;11.754;2023-04-03T11:36:48;97258.72;;;9.48;35.94
60479;BME280;46321;48.398;11.754;2023-04-03T11:39:48;97250.06;;;9.56;35.57
60479;BME280;46321;48.398;11.754;2023-04-03T11:44:49;97242.72;;;9.87;36.99
60479;BME280;46321;48.398;11.754;2023-04-03T11:47:48;97238.09;;;10.07;36.71
60479;BME280;46321;48.398;11.754;2023-04-03T12:16:07;97232.16;;;8.65;39.19
60479;BME280;46321;48.398;11.754;2023-04-03T12:18:43;97234.81;;;8.55;38.69
60479;BME280;46321;48.398;11.754;2023-04-03T12:21:10;97224.00;;;8.48;38.60
60479;BME280;46321;48.398;11.754;2023-04-03T12:23:37;97228.72;;;8.55;38.80
60479;BME280;46321;48.398;11.754;2023-04-03T12:26:23;97226.25;;;8.43;38.94
60479;BME280;46321;48.398;11.754;2023-04-03T12:28:52;97230.56;;;8.34;39.74
60479;BME280;46321;48.398;11.754;2023-04-03T12:31:19;97227.25;;;8.32;39.20
60479;BME280;46321;48.398;11.754;2023-04-03T12:33:58;97228.09;;;8.33;39.51
60479;BME280;46321;48.398;11.754;2023-04-03T12:36:37;97228.88;;;8.53;38.39
60479;BME280;46321;48.398;11.754;2023-04-03T12:41:57;97227.25;;;8.22;40.03
60479;BME280;46321;48.398;11.754;2023-04-03T12:45:10;97219.19;;;8.34;39.02
60479;BME280;46321;48.398;11.754;2023-04-03T12:47:34;97222.25;;;8.29;38.58
60479;BME280;46321;48.398;11.754;2023-04-03T12:50:02;97220.91;;;8.05;38.48
60479;BME280;46321;48.398;11.754;2023-04-03T12:52:37;97224.50;;;8.14;38.42
60479;BME280;46321;48.398;11.754;2023-04-03T12:55:07;97205.19;;;8.23;37.41
60479;BME280;46321;48.398;11.754;2023-04-03T12:57:35;97203.97;;;8.08;35.35
60479;BME280;46321;48.398;11.754;2023-04-03T13:00:28;97203.94;;;8.28;35.99
60479;BME280;46321;48.398;11.754;2023-04-03T13:02:54;97207.25;;;8.40;37.70
60479;BME280;46321;48.398;11.754;2023-04-03T13:05:21;97198.28;;;8.61;36.98
60479;BME280;46321;48.398;11.754;2023-04-03T13:07:56;97189.81;;;8.67;37.25
60479;BME280;46321;48.398;11.754;2023-04-03T13:10:23;97193.41;;;8.56;35.42
60479;BME280;46321;48.398;11.754;2023-04-03T13:12:54;97186.16;;;8.78;36.28
60479;BME280;46321;48.398;11.754;2023-04-03T13:15:30;97193.56;;;8.54;35.96
60479;BME280;46321;48.398;11.754;2023-04-03T13:18:21;97183.16;;;8.15;35.80
60479;BME280;46321;48.398;11.754;2023-04-03T13:20:48;97199.88;;;8.33;38.52
60479;BME280;46321;48.398;11.754;2023-04-03T13:23:16;97196.38;;;8.53;38.15
60479;BME280;46321;48.398;11.754;2023-04-03T13:25:44;97195.84;;;8.39;36.39
60479;BME280;46321;48.398;11.754;2023-04-03T13:28:14;97190.84;;;8.36;36.85
60479;BME280;46321;48.398;11.754;2023-04-03T13:30:41;97192.16;;;8.12;36.37
60479;BME280;46321;48.398;11.754;2023-04-03T13:33:26;97199.38;;;8.20;36.32
60479;BME280;46321;48.398;11.754;2023-04-03T13:39:22;97204.16;;;7.76;36.28
60479;BME280;46321;48.398;11.754;2023-04-03T13:41:50;97205.66;;;7.89;35.87
60479;BME280;46321;48.398;11.754;2023-04-03T13:44:27;97199.44;;;7.90;36.10
60479;BME280;46321;48.398;11.754;2023-04-03T13:49:43;97196.25;;;7.66;34.60
60479;BME280;46321;48.398;11.754;2023-04-03T13:52:26;97205.63;;;7.09;35.62
60479;BME280;46321;48.398;11.754;2023-04-03T13:54:56;97201.66;;;7.25;35.30
60479;BME280;46321;48.398;11.754;2023-04-03T13:57:22;97206.09;;;7.44;33.79
60479;BME280;46321;48.398;11.754;2023-04-03T13:59:48;97192.63;;;7.58;35.08
60479;BME280;46321;48.398;11.754;2023-04-03T14:02:41;97184.88;;;7.86;34.77
60479;BME280;46321;48.398;11.754;2023-04-03T14:05:07;97191.25;;;7.73;34.38
60479;BME280;46321;48.398;11.754;2023-04-03T14:07:34;97196.50;;;7.24;34.19
60479;BME280;46321;48.398;11.754;2023-04-03T14:09:59;97197.22;;;7.26;33.82
60479;BME280;46321;48.398;11.754;2023-04-03T14:12:32;97191.88;;;7.06;34.06
60479;BME280;46321;48.398;11.754;2023-04-03T14:15:04;97188.84;;;7.10;34.29
60479;BME280;46321;48.398;11.754;2023-04-03T14:17:30;97191.41;;;7.32;35.15
60479;BME280;46321;48.398;11.754;2023-04-03T14:19:57;97175.44;;;7.33;34.00
60479;BME280;46321;48.398;11.754;2023-04-03T14:22:29;97187.59;;;7.15;34.06
60479;BME280;46321;48.398;11.754;2023-04-03T14:24:55;97187.38;;;7.28;34.79
60479;BME280;46321;48.398;11.754;2023-04-03T14:27:26;97183.19;;;7.05;33.09
60479;BME280;46321;48.398;11.754;2023-04-03T14:29:53;97177.38;;;7.12;34.55